sensor_id;sensor_type;location;lat;lon;timestamp;pressure;altitude;pressure_sealevel;temperature;humidity
32330;BME280;18807;52.434;13.238;2023-06-10T00:07:24;75559.44;;;-142.05;72.71
32330;BME280;18807;52.434;13.238;2023-06-10T00:14:58;75559.44;;;-142.05;71.61
32330;BME280;18807;52.434;13.238;2023-06-10T00:22:33;75577.78;;;-142.05;72.26
32330;BME280;18807;52.434;13.238;2023-06-10T00:30:08;75598.19;;;-142.05;74.57
32330;BME280;18807;52.434;13.238;2023-06-10T00:37:44;75602.28;;;-142.05;75.22
32330;BME280;18807;52.434;13.238;2023-06-10T00:45:18;75598.19;;;-142.05;74.78
32330;BME280;18807;52.434;13.238;2023-06-10T00:52:54;75612.50;;;-142.05;76.09
32330;BME280;18807;52.434;13.238;2023-06-10T01:00:29;75630.84;;;-142.05;76.37
32330;BME280;18807;52.434;13.238;2023-06-10T01:08:26;75639.00;;;-142.05;76.99
32330;BME280;18807;52.434;13.238;2023-06-10T01:16:03;75639.00;;;-142.05;76.52
32330;BME280;18807;52.434;13.238;2023-06-10T01:23:40;75643.09;;;-142.05;76.42
32330;BME280;18807;52.434;13.238;2023-06-10T01:31:17;75665.53;;;-142.05;78.51
32330;BME280;18807;52.434;13.238;2023-06-10T01:38:55;75677.78;;;-142.05;79.36
32330;BME280;18807;52.434;13.238;2023-06-10T01:46:30;75685.94;;;-142.05;80.00
32330;BME280;18807;52.434;13.238;2023-06-10T01:54:05;75702.28;;;-142.05;81.18
32330;BME280;18807;52.434;13.238;2023-06-10T02:01:39;75704.31;;;-142.05;81.53
32330;BME280;18807;52.434;13.238;2023-06-10T02:09:15;75718.59;;;-142.05;83.56
32330;BME280;18807;52.434;13.238;2023-06-10T02:16:51;75730.84;;;-142.05;84.73
32330;BME280;18807;52.434;13.238;2023-06-10T02:24:32;75741.06;;;-142.05;85.48
32330;BME280;18807;52.434;13.238;2023-06-10T02:32:06;75747.19;;;-142.05;86.09
32330;BME280;18807;52.434;13.238;2023-06-10T02:39:44;75765.53;;;-142.05;89.36
32330;BME280;18807;52.434;13.238;2023-06-10T02:47:37;75777.78;;;-142.05;89.20
32330;BME280;18807;52.434;13.238;2023-06-10T02:55:12;75794.13;;;-142.05;91.87
32330;BME280;18807;52.434;13.238;2023-06-10T03:02:47;75806.34;;;-142.05;94.56
32330;BME280;18807;52.434;13.238;2023-06-10T03:10:23;75814.53;;;-142.05;97.42
32330;BME280;18807;52.434;13.238;2023-06-10T03:17:57;75822.69;;;-142.05;97.06
32330;BME280;18807;52.434;13.238;2023-06-10T03:25:32;75822.69;;;-142.05;98.77
32330;BME280;18807;52.434;13.238;2023-06-10T03:33:07;75820.63;;;-142.05;98.97
32330;BME280;18807;52.434;13.238;2023-06-10T03:40:42;75822.69;;;-142.05;100.00
32330;BME280;18807;52.434;13.238;2023-06-10T03:48:16;75830.84;;;-142.05;100.00
32330;BME280;18807;52.434;13.238;2023-06-10T03:55:52;75830.84;;;-142.05;100.00
32330;BME280;18807;52.434;13.238;2023-06-10T04:03:26;75826.75;;;-142.05;100.00
32330;BME280;18807;52.434;13.238;2023-06-10T04:11:02;75820.63;;;-142.05;99.57
32330;BME280;18807;52.434;13.238;2023-06-10T04:18:37;75820.63;;;-142.05;99.92
32330;BME280;18807;52.434;13.238;2023-06-10T04:26:12;75810.44;;;-142.05;100.00
32330;BME280;18807;52.434;13.238;2023-06-10T04:33:47;75806.34;;;-142.05;100.00
32330;BME280;18807;52.434;13.238;2023-06-10T04:41:22;75794.13;;;-142.05;100.00
32330;BME280;18807;52.434;13.238;2023-06-10T04:49:13;75783.91;;;-142.05;100.00
32330;BME280;18807;52.434;13.238;2023-06-10T04:56:49;75743.09;;;-142.05;95.95
32330;BME280;18807;52.434;13.238;2023-06-10T05:04:23;75728.81;;;-142.05;90.77
32330;BME280;18807;52.434;13.238;2023-06-10T05:11:58;75747.19;;;-142.05;94.25
32330;BME280;18807;52.434;13.238;2023-06-10T05:19:32;75739.00;;;-142.05;91.73
32330;BME280;18807;52.434;13.238;2023-06-10T05:27:09;75736.97;;;-142.05;89.23
32330;BME280;18807;52.434;13.238;2023-06-10T05:34:43;75736.97;;;-142.05;88.24
32330;BME280;18807;52.434;13.238;2023-06-10T05:42:19;75726.78;;;-142.05;87.72
32330;BME280;18807;52.434;13.238;2023-06-10T05:49:53;75718.59;;;-142.05;86.43
32330;BME280;18807;52.434;13.238;2023-06-10T05:57:28;75708.41;;;-142.05;85.66
32330;BME280;18807;52.434;13.238;2023-06-10T06:05:03;75698.19;;;-142.05;84.87
32330;BME280;18807;52.434;13.238;2023-06-10T06:12:39;75665.53;;;-142.05;83.70
32330;BME280;18807;52.434;13.238;2023-06-10T06:20:13;75628.81;;;-142.05;80.26
32330;BME280;18807;52.434;13.238;2023-06-10T06:27:52;75596.16;;;-142.05;78.02
32330;BME280;18807;52.434;13.238;2023-06-10T06:35:26;75567.59;;;-142.05;76.40
32330;BME280;18807;52.434;13.238;2023-06-10T06:43:02;75530.88;;;-142.05;74.61
32330;BME280;18807;52.434;13.238;2023-06-10T06:50:36;75514.53;;;-142.05;74.06
32330;BME280;18807;52.434;13.238;2023-06-10T06:58:29;75473.72;;;-142.05;71.51
32330;BME280;18807;52.434;13.238;2023-06-10T07:06:03;75447.19;;;-142.05;71.96
32330;BME280;18807;52.434;13.238;2023-06-10T07:13:39;75394.16;;;-142.05;66.91
32330;BME280;18807;52.434;13.238;2023-06-10T07:21:13;75349.25;;;-142.05;65.47
32330;BME280;18807;52.434;13.238;2023-06-10T07:28:48;75308.44;;;-142.05;63.56
32330;BME280;18807;52.434;13.238;2023-06-10T07:36:22;75271.72;;;-142.05;62.09
32330;BME280;18807;52.434;13.238;2023-06-10T07:44:01;75206.41;;;-142.05;61.38
32330;BME280;18807;52.434;13.238;2023-06-10T07:51:35;75155.41;;;-142.05;57.71
32330;BME280;18807;52.434;13.238;2023-06-10T07:59:10;75069.72;;;-142.05;56.80
32330;BME280;18807;52.434;13.238;2023-06-10T08:06:44;75037.06;;;-142.05;55.60
32330;BME280;18807;52.434;13.238;2023-06-10T08:14:21;74947.28;;;-142.05;51.74
32330;BME280;18807;52.434;13.238;2023-06-10T08:21:55;74965.66;;;-142.05;51.97
32330;BME280;18807;52.434;13.238;2023-06-10T08:29:32;74959.53;;;-142.05;51.14
32330;BME280;18807;52.434;13.238;2023-06-10T08:37:07;74918.72;;;-142.05;51.26
32330;BME280;18807;52.434;13.238;2023-06-10T08:44:43;74924.84;;;-142.05;51.34
32330;BME280;18807;52.434;13.238;2023-06-10T08:52:20;74863.66;;;-142.05;49.36
32330;BME280;18807;52.434;13.238;2023-06-10T08:59:56;74884.06;;;-142.05;48.60
32330;BME280;18807;52.434;13.238;2023-06-10T09:07:31;74859.56;;;-142.05;48.90
32330;BME280;18807;52.434;13.238;2023-06-10T09:15:10;74800.41;;;-142.05;49.26
32330;BME280;18807;52.434;13.238;2023-06-10T09:22:44;74726.97;;;-142.05;47.33
32330;BME280;18807;52.434;13.238;2023-06-10T09:30:27;74590.28;;;-142.05;45.86
32330;BME280;18807;52.434;13.238;2023-06-10T09:38:02;74604.56;;;-142.05;43.23
32330;BME280;18807;52.434;13.238;2023-06-10T09:45:38;74518.88;;;-142.05;42.44
32330;BME280;18807;52.434;13.238;2023-06-10T09:53:12;74502.56;;;-142.05;41.83
32330;BME280;18807;52.434;13.238;2023-06-10T10:00:52;74527.03;;;-142.05;42.92
32330;BME280;18807;52.434;13.238;2023-06-10T10:08:26;74547.44;;;-142.05;43.56
32330;BME280;18807;52.434;13.238;2023-06-10T10:16:04;74543.34;;;-142.05;44.59
32330;BME280;18807;52.434;13.238;2023-06-10T10:23:46;74594.34;;;-142.05;43.00
32330;BME280;18807;52.434;13.238;2023-06-10T10:31:27;74616.78;;;-142.05;42.68
32330;BME280;18807;52.434;13.238;2023-06-10T10:39:04;74663.72;;;-142.05;42.61
32330;BME280;18807;52.434;13.238;2023-06-10T10:46:43;74659.63;;;-142.05;42.03
32330;BME280;18807;52.434;13.238;2023-06-10T10:54:18;74659.63;;;-142.05;41.88
32330;BME280;18807;52.434;13.238;2023-06-10T11:01:56;74655.56;;;-142.05;41.00
32330;BME280;18807;52.434;13.238;2023-06-10T11:09:30;74663.72;;;-142.05;40.21
32330;BME280;18807;52.434;13.238;2023-06-10T11:17:18;74633.13;;;-142.05;39.92
32330;BME280;18807;52.434;13.238;2023-06-10T11:24:52;74622.91;;;-142.05;38.05
32330;BME280;18807;52.434;13.238;2023-06-10T11:32:31;74576.00;;;-142.05;37.96
32330;BME280;18807;52.434;13.238;2023-06-10T11:40:07;74469.91;;;-142.05;36.51
32330;BME280;18807;52.434;13.238;2023-06-10T11:47:56;74429.13;;;-142.05;36.22
32330;BME280;18807;52.434;13.238;2023-06-10T11:55:42;74388.31;;;-142.05;36.17
32330;BME280;18807;52.434;13.238;2023-06-10T12:03:17;74331.19;;;-142.05;35.65
32330;BME280;18807;52.434;13.238;2023-06-10T12:10:52;74314.88;;;-142.05;34.97
32330;BME280;18807;52.434;13.238;2023-06-10T12:18:27;74278.16;;;-142.05;34.54
32330;BME280;18807;52.434;13.238;2023-06-10T12:26:02;74274.06;;;-142.05;34.33
32330;BME280;18807;52.434;13.238;2023-06-10T12:33:38;74253.69;;;-142.05;35.27
32330;BME280;18807;52.434;13.238;2023-06-10T12:41:12;74249.59;;;-142.05;36.71
32330;BME280;18807;52.434;13.238;2023-06-10T12:48:51;74225.13;;;-142.05;36.45
32330;BME280;18807;52.434;13.238;2023-06-10T12:56:27;74257.75;;;-142.05;34.16
32330;BME280;18807;52.434;13.238;2023-06-10T13:04:04;74253.69;;;-142.05;34.93
32330;BME280;18807;52.434;13.238;2023-06-10T13:11:38;74229.19;;;-142.05;35.35
32330;BME280;18807;52.434;13.238;2023-06-10T13:19:14;74180.25;;;-142.05;35.57
32330;BME280;18807;52.434;13.238;2023-06-10T13:26:49;74176.16;;;-142.05;36.00
32330;BME280;18807;52.434;13.238;2023-06-10T13:34:24;74149.66;;;-142.05;35.26
32330;BME280;18807;52.434;13.238;2023-06-10T13:41:58;74121.09;;;-142.05;35.45
32330;BME280;18807;52.434;13.238;2023-06-10T13:49:33;74086.41;;;-142.05;35.01
32330;BME280;18807;52.434;13.238;2023-06-10T13:57:08;74051.75;;;-142.05;34.66
32330;BME280;18807;52.434;13.238;2023-06-10T14:04:44;74013.00;;;-142.05;34.66
32330;BME280;18807;52.434;13.238;2023-06-10T14:12:18;74068.06;;;-142.05;34.58
32330;BME280;18807;52.434;13.238;2023-06-10T14:19:53;74123.13;;;-142.05;34.32
32330;BME280;18807;52.434;13.238;2023-06-10T14:27:27;74163.94;;;-142.05;35.35
32330;BME280;18807;52.434;13.238;2023-06-10T14:35:03;74119.06;;;-142.05;34.93
32330;BME280;18807;52.434;13.238;2023-06-10T14:42:37;74168.00;;;-142.05;35.90
32330;BME280;18807;52.434;13.238;2023-06-10T14:50:30;74151.69;;;-142.05;34.68
32330;BME280;18807;52.434;13.238;2023-06-10T14:58:05;74108.84;;;-142.05;33.61
32330;BME280;18807;52.434;13.238;2023-06-10T15:05:40;74037.47;;;-142.05;33.05
32330;BME280;18807;52.434;13.238;2023-06-10T15:13:32;74021.16;;;-142.05;32.76
32330;BME280;18807;52.434;13.238;2023-06-10T15:21:08;73974.22;;;-142.05;30.91
32330;BME280;18807;52.434;13.238;2023-06-10T15:28:42;73970.16;;;-142.05;31.44
32330;BME280;18807;52.434;13.238;2023-06-10T15:36:17;73986.47;;;-142.05;31.58
32330;BME280;18807;52.434;13.238;2023-06-10T15:43:51;74047.66;;;-142.05;31.32
32330;BME280;18807;52.434;13.238;2023-06-10T15:51:27;73955.88;;;-142.05;30.79
32330;BME280;18807;52.434;13.238;2023-06-10T15:59:01;74000.75;;;-142.05;30.64
32330;BME280;18807;52.434;13.238;2023-06-10T16:06:36;73911.00;;;-142.05;29.33
32330;BME280;18807;52.434;13.238;2023-06-10T16:14:10;73929.34;;;-142.05;29.07
32330;BME280;18807;52.434;13.238;2023-06-10T16:22:04;73951.78;;;-142.05;28.08
32330;BME280;18807;52.434;13.238;2023-06-10T16:29:39;73925.28;;;-142.05;27.63
32330;BME280;18807;52.434;13.238;2023-06-10T16:37:14;73974.22;;;-142.05;27.79
32330;BME280;18807;52.434;13.238;2023-06-10T16:44:48;74000.75;;;-142.05;27.57
32330;BME280;18807;52.434;13.238;2023-06-10T16:52:24;74037.47;;;-142.05;27.09
32330;BME280;18807;52.434;13.238;2023-06-10T16:59:57;74033.38;;;-142.05;27.14
32330;BME280;18807;52.434;13.238;2023-06-10T17:07:34;74033.38;;;-142.05;27.30
32330;BME280;18807;52.434;13.238;2023-06-10T17:15:09;74045.63;;;-142.05;27.08
32330;BME280;18807;52.434;13.238;2023-06-10T17:22:45;74029.31;;;-142.05;27.00
32330;BME280;18807;52.434;13.238;2023-06-10T17:30:21;74096.63;;;-142.05;27.49
32330;BME280;18807;52.434;13.238;2023-06-10T17:37:56;74147.59;;;-142.05;27.20
32330;BME280;18807;52.434;13.238;2023-06-10T17:45:30;74139.44;;;-142.05;27.15
32330;BME280;18807;52.434;13.238;2023-06-10T17:53:06;74229.19;;;-142.05;28.34
32330;BME280;18807;52.434;13.238;2023-06-10T18:00:40;74280.19;;;-142.05;27.85
32330;BME280;18807;52.434;13.238;2023-06-10T18:08:16;74286.31;;;-142.05;28.51
32330;BME280;18807;52.434;13.238;2023-06-10T18:15:50;74331.19;;;-142.05;28.40
32330;BME280;18807;52.434;13.238;2023-06-10T18:23:26;74353.63;;;-142.05;28.34
32330;BME280;18807;52.434;13.238;2023-06-10T18:31:17;74365.88;;;-142.05;28.99
32330;BME280;18807;52.434;13.238;2023-06-10T18:38:53;74388.31;;;-142.05;29.08
32330;BME280;18807;52.434;13.238;2023-06-10T18:46:28;74416.88;;;-142.05;29.32
32330;BME280;18807;52.434;13.238;2023-06-10T18:54:03;74435.22;;;-142.05;29.46
32330;BME280;18807;52.434;13.238;2023-06-10T19:01:38;74455.63;;;-142.05;29.81
32330;BME280;18807;52.434;13.238;2023-06-10T19:09:13;74482.16;;;-142.05;31.63
32330;BME280;18807;52.434;13.238;2023-06-10T19:16:47;74514.78;;;-142.05;30.87
32330;BME280;18807;52.434;13.238;2023-06-10T19:24:22;74541.31;;;-142.05;31.33
32330;BME280;18807;52.434;13.238;2023-06-10T19:31:57;74565.78;;;-142.05;31.46
32330;BME280;18807;52.434;13.238;2023-06-10T19:39:32;74600.47;;;-142.05;33.15
32330;BME280;18807;52.434;13.238;2023-06-10T19:47:07;74653.50;;;-142.05;34.64
32330;BME280;18807;52.434;13.238;2023-06-10T19:54:42;74667.78;;;-142.05;34.99
32330;BME280;18807;52.434;13.238;2023-06-10T20:02:16;74692.28;;;-142.05;35.59
32330;BME280;18807;52.434;13.238;2023-06-10T20:09:53;74743.28;;;-142.05;36.75
32330;BME280;18807;52.434;13.238;2023-06-10T20:17:27;74757.56;;;-142.05;37.09
32330;BME280;18807;52.434;13.238;2023-06-10T20:25:03;74788.16;;;-142.05;37.44
32330;BME280;18807;52.434;13.238;2023-06-10T20:32:37;74802.44;;;-142.05;37.17
32330;BME280;18807;52.434;13.238;2023-06-10T20:40:13;74820.81;;;-142.05;37.23
32330;BME280;18807;52.434;13.238;2023-06-10T20:47:47;74837.13;;;-142.05;36.99
32330;BME280;18807;52.434;13.238;2023-06-10T20:55:23;74851.41;;;-142.05;37.28
32330;BME280;18807;52.434;13.238;2023-06-10T21:02:57;74882.00;;;-142.05;37.63
32330;BME280;18807;52.434;13.238;2023-06-10T21:10:33;74904.44;;;-142.05;37.05
32330;BME280;18807;52.434;13.238;2023-06-10T21:18:07;74930.97;;;-142.05;36.89
32330;BME280;18807;52.434;13.238;2023-06-10T21:25:59;74959.53;;;-142.05;36.97
32330;BME280;18807;52.434;13.238;2023-06-10T21:33:38;74998.31;;;-142.05;36.61
32330;BME280;18807;52.434;13.238;2023-06-10T21:41:13;75020.75;;;-142.05;36.26
32330;BME280;18807;52.434;13.238;2023-06-10T21:48:48;75035.03;;;-142.05;36.20
32330;BME280;18807;52.434;13.238;2023-06-10T21:56:23;75061.56;;;-142.05;36.06
32330;BME280;18807;52.434;13.238;2023-06-10T22:03:58;75092.16;;;-142.05;35.74
32330;BME280;18807;52.434;13.238;2023-06-10T22:11:34;75118.69;;;-142.05;35.58
32330;BME280;18807;52.434;13.238;2023-06-10T22:19:08;75130.94;;;-142.05;35.55
32330;BME280;18807;52.434;13.238;2023-06-10T22:26:43;75141.13;;;-142.05;35.25
32330;BME280;18807;52.434;13.238;2023-06-10T22:34:25;75165.63;;;-142.05;35.32
32330;BME280;18807;52.434;13.238;2023-06-10T22:42:01;75194.19;;;-142.05;35.23
32330;BME280;18807;52.434;13.238;2023-06-10T22:49:37;75206.41;;;-142.05;35.22
32330;BME280;18807;52.434;13.238;2023-06-10T22:57:13;75208.47;;;-142.05;35.23
32330;BME280;18807;52.434;13.238;2023-06-10T23:04:47;75237.03;;;-142.05;34.85
32330;BME280;18807;52.434;13.238;2023-06-10T23:12:22;75255.38;;;-142.05;34.22
32330;BME280;18807;52.434;13.238;2023-06-10T23:19:56;75279.88;;;-142.05;33.68
32330;BME280;18807;52.434;13.238;2023-06-10T23:27:32;75310.47;;;-142.05;33.57
32330;BME280;18807;52.434;13.238;2023-06-10T23:35:06;75330.88;;;-142.05;33.62
32330;BME280;18807;52.434;13.238;2023-06-10T23:42:43;75334.97;;;-142.05;33.47
32330;BME280;18807;52.434;13.238;2023-06-10T23:50:17;75353.34;;;-142.05;33.55
32330;BME280;18807;52.434;13.238;2023-06-10T23:57:52;75375.78;;;-142.05;33.80
